AirNav   MODERNIZE NOT PRIVATIZE ATC
 
 1044 users online  

KCHU Houston County Airport
Caledonia, Minnesota, USA

GOING TO CALEDONIA?


FAA INFORMATION EFFECTIVE 20 JULY 2017

Location

FAA Identifier: CHU
Lat/Long: 43-35-46.8910N / 091-30-14.2070W
43-35.781517N / 091-30.236783W
43.5963586 / -91.5039464
(estimated)
Elevation: 1179 ft. / 359.4 m (surveyed)
Variation: 01E (1995)
From city: 3 miles S of CALEDONIA, MN
Time zone: UTC -5 (UTC -6 during Standard Time)
Zip code: 55921

Airport Operations

Airport use: Open to the public
Control tower: no
ARTCC: MINNEAPOLIS CENTER
FSS: PRINCETON FLIGHT SERVICE STATION
NOTAMs facility: PNM (NOTAM-D service available)
Attendance: UNATNDD
Wind indicator: lighted
Segmented circle: no
Lights: ACTVT MIRL RY 13/31 - CTAF.
Beacon: white-green (lighted land airport)
Operates sunset to sunrise.

Airport Communications

CTAF: 122.9
  • APCH/DEP SERVICE PROVIDED BY MINNEAPOLIS ARTCC ON FREQS 128.6/363.0 (LA CROSSE RCAG).

Nearby radio navigation aids

VOR radial/distance  VOR name  Freq  Var
ODIr184/19.0NODINE VORTAC117.9001E
UKNr359/19.0WAUKON VORTAC116.6005E
LSEr214/19.9LA CROSSE VOR/DME108.4001W
ONAr162/30.1WINONA VOR/DME111.4001E

Airport Services

Fuel available: 100LL
24 HR CREDIT CARD SVC AVBL.
Parking: tiedowns
Airframe service: NONE
Powerplant service: NONE
Bottled oxygen: NONE
Bulk oxygen: NONE

Runway Information

Runway 13/31

Dimensions: 3499 x 77 ft. / 1066 x 23 m
Surface: asphalt, in good condition
Weight bearing capacity: 
Single wheel: 10.0
Runway edge lights: medium intensity
RUNWAY 13  RUNWAY 31
Latitude: 43-35.985983N43-35.578483N
Longitude: 091-30.517050W091-29.957033W
Elevation: 1175.0 ft.1179.0 ft.
Gradient: 0.3%0.3%
Traffic pattern: leftleft
Runway heading: 134 magnetic, 135 true314 magnetic, 315 true
Markings: nonprecision, in good conditionnonprecision, in good condition
Touchdown point: no, no lightsyes, no lights

Airport Ownership and Management from official FAA records

Ownership: Publicly-owned
Owner: HOUSTON COUNTY
304 SO MARSHALL STREET
CALEDONIA, MN 55921
Phone 507-725-5803
Manager: BRIAN POGODZINSKI
1124 E WASHINGTON ST
CALEDONIA, MN 55921
Phone 507-725-3925

Airport Operational Statistics

Aircraft based on the field: 13
Single engine airplanes: 12
Multi engine airplanes: 1
    
Aircraft operations: avg 67/week *
57% local general aviation
43% transient general aviation
* for 12-month period ending 31 August 2015

Additional Remarks

TURF TWY 25 FT WIDE

Instrument Procedures

NOTE: All procedures below are presented as PDF files. If you need a reader for these files, you should download the free Adobe Reader.

NOT FOR NAVIGATION. Please procure official charts for flight.
FAA instrument procedures published for use between 20 July 2017 at 0901Z and 17 August 2017 at 0900Z.

 
IAPs - Instrument Approach Procedures
VOR/DME OR GPS-A   download (140KB)

Other nearby airports with instrument procedures:

55Y - Rushford Municipal Airport (19 nm NW)
KLSE - La Crosse Regional Airport (20 nm NE)
KDEH - Decorah Municipal Airport (22 nm SW)
Y51 - Viroqua Municipal Airport (26 nm E)
KFKA - Fillmore County Airport (30 nm W)
 
Loc | Ops | Rwys | IFR | FBO | Links
Com | Nav | Svcs | Stats | Notes


 
Area around KCHU (Houston County Airport)
 
Road maps at: MapQuest Bing Google
 
Aerial photo
WARNING: Photo may not be current or correct
Aerial photo of KCHU (Houston County Airport)
Photo by Ed Wells
Photo taken 22-Sep-2007

Do you have a better or more recent aerial photo of Houston County Airport that you would like to share? If so, please send us your photo.

 
Sectional chart

 
Airport distance calculator
Flying to Houston County Airport? Find the distance to fly.

From to KCHU

Sunrise and sunset
Times for 26-Jul-2017
 Local
(UTC-5)
 Zulu
(UTC)
Morning civil twilight05:1710:17
Sunrise05:5010:50
Sunset20:3501:35
Evening civil twilight21:0802:08

Current date and time
Zulu (UTC)  27-Jul-2017 00:56:11
Local (UTC-5)  26-Jul-2017 19:56:11
 
METAR
KLSE 
20nm NE 
262353Z 31004KT 10SM BKN037 28/22 A2994 RMK AO2 SLP128 60000 T02830217 10289 20261 56008
KDEH 
22nm SW 
270035Z AUTO 00000KT 10SM BKN021 OVC080 24/22 A2997 RMK AO2
KY51 
26nm E 
270035Z AUTO 00000KT 10SM OVC085 25/22 A2998 RMK AO1 T02480222
KONA 
29nm N 
270032Z AUTO 34003KT 10SM SCT032 25/20 A2997 RMK AO2
KFKA 
30nm W 
270032Z AUTO 36003KT 10SM SCT022 BKN028 24/21 A3000 RMK AO2 T02420208
KPDC 
39nm SE 
270035Z AUTO 00000KT 10SM BKN060 OVC110 26/21 A2995 RMK AO2 T02570213
KCMY 
40nm NE 
270035Z AUTO 32004KT 10SM SCT100 25/21 A2997 RMK AO2 T02530206
TAF
KLSE 
20nm NE 
262303Z 2623/2718 35004KT P6SM SCT025 FM270800 36004KT 4SM BR SKC FM271300 01004KT P6SM SKC
NOTAMs
Click for the latest NOTAMs
NOTAMs are issued by the DoD/FAA and will open in a separate window not controlled by AirNav.

 

 
 

FBO, Fuel Providers, and Aircraft Ground Support

  
 Business Name 
 
 Contact 
 
 Services / Description 
 
Fuel Prices
 
Comments
  
Houston County 507-725-3925 Aviation fuel

More info about Houston County
Avfuel
100LL
SS $4.09 
 Updated 13-Jul-2017
 
   1 read write
SS=Self service
Update Fuel Prices
 

Would you like to see your business listed on this page?

 If your business provides an interesting product or service to pilots, flight crews, aircraft, or users of the Houston County Airport, you should consider listing it here.  To start the listing process, click on the button below
 
Add a business
 

Other Pages about Houston County Airport

PDF page(s) from the Minnesota Airport Directory
 
Update a link
 
Copyright © AirNav, LLC. All rights reserved. Privacy Policy  Contact